createdAt,value
2023-02-17T00:00:28.572Z,1.90
2023-02-17T00:01:33.348Z,1.90
2023-02-17T00:02:35.623Z,1.90
2023-02-17T00:03:37.814Z,1.90
2023-02-17T00:04:39.713Z,1.90
2023-02-17T00:05:41.594Z,1.90
2023-02-17T00:06:43.416Z,1.90
2023-02-17T00:07:45.286Z,1.90
2023-02-17T00:08:47.631Z,1.80
2023-02-17T00:09:49.490Z,1.80
2023-02-17T00:10:58.788Z,1.80
2023-02-17T00:12:00.751Z,1.80
2023-02-17T00:13:02.600Z,1.80
2023-02-17T00:14:04.619Z,1.80
2023-02-17T00:15:08.375Z,1.80
2023-02-17T00:16:17.743Z,1.80
2023-02-17T00:17:19.693Z,1.80
2023-02-17T00:18:22.623Z,1.80
2023-02-17T00:19:25.235Z,1.80
2023-02-17T00:20:29.440Z,1.80
2023-02-17T00:21:32.490Z,1.80
2023-02-17T00:22:34.342Z,1.80
2023-02-17T00:23:36.155Z,1.80
2023-02-17T00:24:39.453Z,1.80
2023-02-17T00:25:41.439Z,1.80
2023-02-17T00:26:43.812Z,1.80
2023-02-17T00:27:45.654Z,1.80
2023-02-17T00:28:48.811Z,1.80
2023-02-17T00:29:50.676Z,1.70
2023-02-17T00:30:52.576Z,1.80
2023-02-17T00:31:55.114Z,1.80
2023-02-17T00:32:57.084Z,1.80
2023-02-17T00:33:58.949Z,1.80
2023-02-17T00:35:00.800Z,1.80
2023-02-17T00:36:11.826Z,1.80
2023-02-17T00:37:13.697Z,1.80
2023-02-17T00:38:15.589Z,1.80
2023-02-17T00:39:17.962Z,1.80
2023-02-17T00:40:19.883Z,1.80
2023-02-17T00:41:22.103Z,1.80
2023-02-17T00:42:23.922Z,1.80
2023-02-17T00:43:26.286Z,1.80
2023-02-17T00:44:28.108Z,1.80
2023-02-17T00:45:29.992Z,1.80
2023-02-17T00:46:32.224Z,1.80
2023-02-17T00:47:34.096Z,1.80
2023-02-17T00:48:36.073Z,1.80
2023-02-17T00:49:37.992Z,1.80
2023-02-17T00:50:39.896Z,1.80
2023-02-17T00:51:41.854Z,1.80
2023-02-17T00:52:43.683Z,1.80
2023-02-17T00:53:46.002Z,1.80
2023-02-17T00:54:47.863Z,1.80
2023-02-17T00:55:50.330Z,1.80
2023-02-17T00:56:52.355Z,1.80
2023-02-17T00:57:54.291Z,1.80
2023-02-17T00:58:56.105Z,1.80
2023-02-17T00:59:58.585Z,1.80
2023-02-17T01:01:00.844Z,1.80
2023-02-17T01:02:02.855Z,1.80
2023-02-17T01:03:05.186Z,1.80
2023-02-17T01:04:07.277Z,1.80
2023-02-17T01:05:09.230Z,1.80
2023-02-17T01:06:22.186Z,1.80
2023-02-17T01:07:24.025Z,1.80
2023-02-17T01:08:26.684Z,1.80
2023-02-17T01:09:28.564Z,1.80
2023-02-17T01:10:30.579Z,1.80
2023-02-17T01:11:34.009Z,1.90
2023-02-17T01:12:35.826Z,1.80
2023-02-17T01:13:37.708Z,1.80
2023-02-17T01:14:39.549Z,1.80
2023-02-17T01:15:44.754Z,1.80
2023-02-17T01:16:48.886Z,1.80
2023-02-17T01:17:50.720Z,1.80
2023-02-17T01:18:52.938Z,1.80
2023-02-17T01:19:54.800Z,1.80
2023-02-17T01:20:56.643Z,1.80
2023-02-17T01:21:58.474Z,1.80
2023-02-17T01:23:00.317Z,1.80
2023-02-17T01:24:05.260Z,1.80
2023-02-17T01:25:07.556Z,1.80
2023-02-17T01:26:16.881Z,1.80
2023-02-17T01:27:18.810Z,1.80
2023-02-17T01:28:22.228Z,1.80
2023-02-17T01:29:24.117Z,1.80
2023-02-17T01:30:26.036Z,1.90
2023-02-17T01:31:28.310Z,1.80
2023-02-17T01:32:30.259Z,1.80
2023-02-17T01:33:32.115Z,1.80
2023-02-17T01:34:34.180Z,1.80
2023-02-17T01:35:36.012Z,1.80
2023-02-17T01:36:37.866Z,1.90
2023-02-17T01:37:39.681Z,1.80
2023-02-17T01:38:41.642Z,1.80
2023-02-17T01:39:43.566Z,1.80
2023-02-17T01:40:48.724Z,1.80
2023-02-17T01:41:50.540Z,1.80
2023-02-17T01:42:52.388Z,1.90
2023-02-17T01:44:19.079Z,1.90
2023-02-17T01:45:20.978Z,1.90
2023-02-17T01:46:22.907Z,1.80
2023-02-17T01:47:24.761Z,1.80
2023-02-17T01:48:33.938Z,1.80
2023-02-17T01:49:41.645Z,1.80
2023-02-17T01:50:59.749Z,1.80
2023-02-17T01:52:27.734Z,1.80
2023-02-17T01:53:43.914Z,1.80
2023-02-17T01:55:16.625Z,1.80
2023-02-17T01:56:19.028Z,1.80
2023-02-17T01:57:24.950Z,1.80
2023-02-17T01:58:28.124Z,1.80
2023-02-17T01:59:30.666Z,1.80
2023-02-17T02:00:33.894Z,1.90
2023-02-17T02:01:36.266Z,1.80
2023-02-17T02:02:40.077Z,1.90
2023-02-17T02:03:42.183Z,1.90
2023-02-17T02:04:47.684Z,1.90
2023-02-17T02:05:49.687Z,1.90
2023-02-17T02:06:51.552Z,1.90
2023-02-17T02:07:53.820Z,1.90
2023-02-17T02:09:08.901Z,1.90
2023-02-17T02:10:13.269Z,1.90
2023-02-17T02:11:15.098Z,1.90
2023-02-17T02:12:29.828Z,1.80
2023-02-17T02:13:31.681Z,1.80
2023-02-17T02:14:33.534Z,1.80
2023-02-17T02:15:46.257Z,1.80
2023-02-17T02:17:14.007Z,1.80
2023-02-17T02:18:32.432Z,1.90
2023-02-17T02:20:02.428Z,1.80
2023-02-17T02:21:30.432Z,1.80
2023-02-17T02:23:01.082Z,1.80
2023-02-17T02:24:15.156Z,1.80
2023-02-17T02:25:54.316Z,1.80
2023-02-17T02:27:14.086Z,1.80
2023-02-17T02:28:43.071Z,1.80
2023-02-17T02:30:00.106Z,1.80
2023-02-17T02:32:54.145Z,1.80
2023-02-17T02:34:03.487Z,1.80
2023-02-17T02:35:26.594Z,1.80
2023-02-17T02:36:43.619Z,1.80
2023-02-17T02:38:13.258Z,1.80
2023-02-17T02:39:18.666Z,1.80
2023-02-17T02:40:24.380Z,1.80
2023-02-17T02:41:50.397Z,1.80
2023-02-17T02:42:53.281Z,1.90
2023-02-17T02:43:55.326Z,1.90
2023-02-17T02:44:57.208Z,1.90
2023-02-17T02:45:59.112Z,1.90
2023-02-17T02:47:26.593Z,1.90
2023-02-17T02:48:28.511Z,1.90
2023-02-17T02:49:33.282Z,1.90
2023-02-17T02:50:53.985Z,1.90
2023-02-17T02:52:23.663Z,1.90
2023-02-17T02:53:37.937Z,1.90
2023-02-17T02:55:00.745Z,1.90
2023-02-17T02:56:30.955Z,1.90
2023-02-17T02:57:38.892Z,1.90
2023-02-17T02:58:55.399Z,1.90
2023-02-17T03:00:20.689Z,1.90
2023-02-17T03:02:03.031Z,1.90
2023-02-17T03:03:16.050Z,1.90
2023-02-17T03:04:26.716Z,1.90
2023-02-17T03:05:54.913Z,1.90
2023-02-17T03:07:08.914Z,1.90
2023-02-17T03:08:25.789Z,1.90
2023-02-17T03:09:28.983Z,1.90
2023-02-17T03:10:31.053Z,1.90
2023-02-17T03:11:33.096Z,1.90
2023-02-17T03:12:38.031Z,1.90
2023-02-17T03:13:41.085Z,1.90
2023-02-17T03:14:44.049Z,1.90
2023-02-17T03:15:47.280Z,1.90
2023-02-17T03:16:52.219Z,2.00
2023-02-17T03:17:59.773Z,2.00
2023-02-17T03:19:01.611Z,2.00
2023-02-17T03:20:05.018Z,2.00
2023-02-17T03:21:14.156Z,2.00
2023-02-17T03:22:33.839Z,2.00
2023-02-17T03:23:36.223Z,2.00
2023-02-17T03:24:38.174Z,2.00
2023-02-17T03:25:40.706Z,2.00
2023-02-17T03:26:42.572Z,2.00
2023-02-17T03:27:44.470Z,2.00
2023-02-17T03:28:46.319Z,2.00
2023-02-17T03:29:48.256Z,2.10
2023-02-17T03:30:50.149Z,2.10
2023-02-17T03:31:52.075Z,2.10
2023-02-17T03:32:54.489Z,2.10
2023-02-17T03:33:56.862Z,2.10
2023-02-17T03:34:59.015Z,2.10
2023-02-17T03:36:00.892Z,2.10
2023-02-17T03:37:02.754Z,2.10
2023-02-17T03:38:04.703Z,2.10
2023-02-17T03:39:06.538Z,2.10
2023-02-17T03:40:09.948Z,2.10
2023-02-17T03:41:11.902Z,2.10
2023-02-17T03:42:14.202Z,2.10
2023-02-17T03:43:17.897Z,2.10
2023-02-17T03:44:20.162Z,2.20
2023-02-17T03:45:22.088Z,2.20
2023-02-17T03:46:23.994Z,2.10
2023-02-17T03:47:25.936Z,2.10
2023-02-17T03:48:27.809Z,2.20
2023-02-17T03:49:29.746Z,2.10
2023-02-17T03:50:31.837Z,2.10
2023-02-17T03:51:34.117Z,2.10
2023-02-17T03:52:36.037Z,2.10
2023-02-17T03:53:38.404Z,2.10
2023-02-17T03:54:40.305Z,2.20
2023-02-17T03:55:42.176Z,2.10
2023-02-17T03:56:44.055Z,2.10
2023-02-17T03:57:45.904Z,2.10
2023-02-17T03:58:47.799Z,2.10
2023-02-17T03:59:49.680Z,2.10
2023-02-17T04:00:51.730Z,2.20
2023-02-17T04:01:53.614Z,2.20
2023-02-17T04:02:57.144Z,2.20
2023-02-17T04:03:59.018Z,2.20
2023-02-17T04:05:00.882Z,2.20
2023-02-17T04:06:03.558Z,2.20
2023-02-17T04:07:05.702Z,2.20
2023-02-17T04:08:07.519Z,2.20
2023-02-17T04:09:09.540Z,2.20
2023-02-17T04:10:11.565Z,2.20
2023-02-17T04:11:13.597Z,2.20
2023-02-17T04:12:15.473Z,2.20
2023-02-17T04:13:17.328Z,2.20
2023-02-17T04:14:19.174Z,2.20
2023-02-17T04:15:21.067Z,2.20
2023-02-17T04:16:23.079Z,2.10
2023-02-17T04:17:24.939Z,2.20
2023-02-17T04:18:27.064Z,2.20
2023-02-17T04:19:28.933Z,2.20
2023-02-17T04:20:30.801Z,2.10
2023-02-17T04:21:32.942Z,2.20
2023-02-17T04:22:34.854Z,2.20
2023-02-17T04:23:37.355Z,2.20
2023-02-17T04:24:39.581Z,2.20
2023-02-17T04:25:42.960Z,2.10
2023-02-17T04:26:44.817Z,2.20
2023-02-17T04:27:46.696Z,2.10
2023-02-17T04:28:48.568Z,2.10
2023-02-17T04:29:51.501Z,2.10
2023-02-17T04:30:53.481Z,2.10
2023-02-17T04:31:55.587Z,2.10
2023-02-17T04:32:58.304Z,2.20
2023-02-17T04:34:00.189Z,2.20
2023-02-17T04:35:02.010Z,2.20
2023-02-17T04:36:04.713Z,2.20
2023-02-17T04:37:07.732Z,2.20
2023-02-17T04:38:10.685Z,2.20
2023-02-17T04:39:12.691Z,2.20
2023-02-17T04:40:14.850Z,2.10
2023-02-17T04:41:16.934Z,2.20
2023-02-17T04:42:18.756Z,2.20
2023-02-17T04:43:20.619Z,2.20
2023-02-17T04:44:22.517Z,2.20
2023-02-17T04:45:24.532Z,2.20
2023-02-17T04:46:26.504Z,2.20
2023-02-17T04:47:28.713Z,2.20
2023-02-17T04:48:30.814Z,2.20
2023-02-17T04:49:32.701Z,2.20
2023-02-17T04:50:34.528Z,2.20
2023-02-17T04:51:36.510Z,2.20
2023-02-17T04:52:38.734Z,2.20
2023-02-17T04:53:40.593Z,2.20
2023-02-17T04:54:42.398Z,2.20
2023-02-17T04:55:44.332Z,2.20
2023-02-17T04:56:46.304Z,2.20
2023-02-17T04:57:48.301Z,2.20
2023-02-17T04:58:50.152Z,2.20
2023-02-17T04:59:52.028Z,2.20
2023-02-17T05:00:53.929Z,2.30
2023-02-17T05:01:55.904Z,2.20
2023-02-17T05:02:57.833Z,2.20
2023-02-17T05:03:59.894Z,2.20
2023-02-17T05:05:01.870Z,2.20
2023-02-17T05:06:04.185Z,2.30
2023-02-17T05:07:06.270Z,2.30
2023-02-17T05:08:08.586Z,2.20
2023-02-17T05:09:10.466Z,2.20
2023-02-17T05:10:14.275Z,2.20
2023-02-17T05:11:16.434Z,2.20
2023-02-17T05:12:18.448Z,2.20
2023-02-17T05:13:20.391Z,2.20
2023-02-17T05:14:22.292Z,2.20
2023-02-17T05:15:24.198Z,2.20
2023-02-17T05:16:26.097Z,2.30
2023-02-17T05:17:27.982Z,2.30
2023-02-17T05:18:29.872Z,2.30
2023-02-17T05:19:31.922Z,2.30
2023-02-17T05:20:33.816Z,2.30
2023-02-17T05:21:35.737Z,2.20
2023-02-17T05:22:37.887Z,2.20
2023-02-17T05:23:41.371Z,2.30
2023-02-17T05:24:43.371Z,2.30
2023-02-17T05:25:45.318Z,2.30
2023-02-17T05:26:47.257Z,2.30
2023-02-17T05:27:49.219Z,2.30
2023-02-17T05:28:51.349Z,2.30
2023-02-17T05:29:53.199Z,2.20
2023-02-17T05:30:55.127Z,2.30
2023-02-17T05:31:57.045Z,2.30
2023-02-17T05:32:59.018Z,2.30
2023-02-17T05:34:01.118Z,2.30
2023-02-17T05:35:03.088Z,2.30
2023-02-17T05:36:08.253Z,2.30
2023-02-17T05:37:10.892Z,2.30
2023-02-17T05:38:12.737Z,2.30
2023-02-17T05:39:14.704Z,2.30
2023-02-17T05:40:16.646Z,2.30
2023-02-17T05:41:19.399Z,2.30
2023-02-17T05:42:21.271Z,2.30
2023-02-17T05:43:23.355Z,2.30
2023-02-17T05:44:25.281Z,2.30
2023-02-17T05:45:27.122Z,2.30
2023-02-17T05:46:29.010Z,2.30
2023-02-17T05:47:30.978Z,2.30
2023-02-17T05:48:33.516Z,2.40
2023-02-17T05:49:35.462Z,2.40
2023-02-17T05:50:38.300Z,2.40
2023-02-17T05:51:40.704Z,2.40
2023-02-17T05:52:42.616Z,2.40
2023-02-17T05:53:45.193Z,2.40
2023-02-17T05:54:47.113Z,2.40
2023-02-17T05:55:48.983Z,2.40
2023-02-17T05:56:50.827Z,2.40
2023-02-17T05:57:52.676Z,2.40
2023-02-17T05:58:54.691Z,2.40
2023-02-17T05:59:56.574Z,2.50
2023-02-17T06:00:58.418Z,2.50
2023-02-17T06:02:00.237Z,2.50
2023-02-17T06:03:02.155Z,2.50
2023-02-17T06:04:05.171Z,2.50
2023-02-17T06:05:08.503Z,2.50
2023-02-17T06:06:10.495Z,2.50
2023-02-17T06:07:12.339Z,2.50
2023-02-17T06:08:14.167Z,2.50
2023-02-17T06:09:16.050Z,2.50
2023-02-17T06:10:17.969Z,2.50
2023-02-17T06:11:19.791Z,2.50
2023-02-17T06:12:21.634Z,2.50
2023-02-17T06:13:23.498Z,2.50
2023-02-17T06:14:25.390Z,2.50
2023-02-17T06:15:27.239Z,2.50
2023-02-17T06:16:29.248Z,2.50
2023-02-17T06:17:31.191Z,2.50
2023-02-17T06:18:33.146Z,2.50
2023-02-17T06:19:35.042Z,2.50
2023-02-17T06:20:36.880Z,2.40
2023-02-17T06:21:38.793Z,2.50
2023-02-17T06:22:42.554Z,2.50
2023-02-17T06:23:44.464Z,2.40
2023-02-17T06:24:46.394Z,2.40
2023-02-17T06:25:48.265Z,2.40
2023-02-17T06:26:50.202Z,2.40
2023-02-17T06:27:52.087Z,2.40
2023-02-17T06:28:53.943Z,2.40
2023-02-17T06:29:55.875Z,2.40
2023-02-17T06:30:57.960Z,2.40
2023-02-17T06:31:59.844Z,2.50
2023-02-17T06:33:01.804Z,2.50
2023-02-17T06:34:06.360Z,2.50
2023-02-17T06:35:08.628Z,2.50
2023-02-17T06:36:10.542Z,2.50
2023-02-17T06:37:12.419Z,2.50
2023-02-17T06:38:14.381Z,2.60
2023-02-17T06:39:16.298Z,2.50
2023-02-17T06:40:18.479Z,2.60
2023-02-17T06:41:20.378Z,2.60
2023-02-17T06:42:22.384Z,2.60
2023-02-17T06:43:24.212Z,2.60
2023-02-17T06:44:26.256Z,2.60
2023-02-17T06:45:28.292Z,2.60
2023-02-17T06:46:30.395Z,2.60
2023-02-17T06:47:33.254Z,2.60
2023-02-17T06:48:35.372Z,2.60
2023-02-17T06:49:38.703Z,2.60
2023-02-17T06:50:41.826Z,2.60
2023-02-17T06:51:43.734Z,2.70
2023-02-17T06:52:45.593Z,2.70
2023-02-17T06:53:47.553Z,2.70
2023-02-17T06:54:49.375Z,2.70
2023-02-17T06:55:51.449Z,2.70
2023-02-17T06:56:53.304Z,2.70
2023-02-17T06:57:55.132Z,2.70
2023-02-17T06:58:56.956Z,2.70
2023-02-17T06:59:59.049Z,2.80
2023-02-17T07:01:01.146Z,2.80
2023-02-17T07:02:03.117Z,2.80
2023-02-17T07:03:05.118Z,2.80
2023-02-17T07:04:07.080Z,2.80
2023-02-17T07:05:09.131Z,2.80
2023-02-17T07:06:11.036Z,2.80
2023-02-17T07:07:13.147Z,2.80
2023-02-17T07:08:15.075Z,2.80
2023-02-17T07:09:17.037Z,2.80
2023-02-17T07:10:19.357Z,2.80
2023-02-17T07:11:21.256Z,2.80
2023-02-17T07:12:23.108Z,2.80
2023-02-17T07:13:24.947Z,2.80
2023-02-17T07:14:27.521Z,2.80
2023-02-17T07:15:29.375Z,2.80
2023-02-17T07:16:31.362Z,2.80
2023-02-17T07:17:33.245Z,2.80
2023-02-17T07:18:35.500Z,2.80
2023-02-17T07:19:37.787Z,2.80
2023-02-17T07:20:39.632Z,2.80
2023-02-17T07:21:41.887Z,2.80
2023-02-17T07:22:43.711Z,2.80
2023-02-17T07:23:45.597Z,2.80
2023-02-17T07:24:47.489Z,2.70
2023-02-17T07:25:49.313Z,2.80
2023-02-17T07:26:51.831Z,2.70
2023-02-17T07:27:59.825Z,2.80
2023-02-17T07:29:01.894Z,2.70
2023-02-17T07:30:04.896Z,2.70
2023-02-17T07:31:16.324Z,2.70
2023-02-17T07:32:18.310Z,2.70
2023-02-17T07:33:20.129Z,2.70
2023-02-17T07:34:22.238Z,2.80
2023-02-17T07:35:24.223Z,2.70
2023-02-17T07:36:26.343Z,2.80
2023-02-17T07:37:28.212Z,2.80
2023-02-17T07:38:30.839Z,2.80
2023-02-17T07:39:34.069Z,2.80
2023-02-17T07:40:36.147Z,2.80
2023-02-17T07:41:38.161Z,2.80
2023-02-17T07:42:40.033Z,2.80
2023-02-17T07:43:42.418Z,2.80
2023-02-17T07:44:44.272Z,2.80
2023-02-17T07:45:46.211Z,2.80
2023-02-17T07:46:48.089Z,2.80
2023-02-17T07:47:49.985Z,2.80
2023-02-17T07:48:51.833Z,2.80
2023-02-17T07:49:53.700Z,2.80
2023-02-17T07:50:55.625Z,2.80
2023-02-17T07:51:57.441Z,2.80
2023-02-17T07:52:59.405Z,2.80
2023-02-17T07:54:01.960Z,2.80
2023-02-17T07:55:04.231Z,2.80
2023-02-17T07:56:08.967Z,2.80
2023-02-17T07:57:10.890Z,2.80
2023-02-17T07:58:12.757Z,2.80
2023-02-17T07:59:15.258Z,2.90
2023-02-17T08:00:17.874Z,2.90
2023-02-17T08:01:22.914Z,2.90
2023-02-17T08:02:24.786Z,2.90
2023-02-17T08:03:26.675Z,2.90
2023-02-17T08:04:28.567Z,2.90
2023-02-17T08:05:30.529Z,2.90
2023-02-17T08:06:32.597Z,2.90
2023-02-17T08:07:34.973Z,2.90
2023-02-17T08:08:55.157Z,2.90
2023-02-17T08:10:15.605Z,2.90
2023-02-17T08:11:36.485Z,2.90
2023-02-17T08:12:50.356Z,2.90
2023-02-17T08:13:52.158Z,2.90
2023-02-17T08:14:57.864Z,2.90
2023-02-17T08:15:59.691Z,2.90
2023-02-17T08:17:01.694Z,2.90
2023-02-17T08:18:05.029Z,3.00
2023-02-17T08:19:07.672Z,3.00
2023-02-17T08:20:10.185Z,3.00
2023-02-17T08:21:11.974Z,3.00
2023-02-17T08:22:13.984Z,3.00
2023-02-17T08:23:15.852Z,3.00
2023-02-17T08:24:20.133Z,3.00
2023-02-17T08:25:22.062Z,3.00
2023-02-17T08:26:24.409Z,3.00
2023-02-17T08:27:26.385Z,3.00
2023-02-17T08:28:28.335Z,3.00
2023-02-17T08:29:31.237Z,3.00
2023-02-17T08:30:36.864Z,3.00
2023-02-17T08:31:39.327Z,3.00
2023-02-17T08:32:41.235Z,3.10
2023-02-17T08:33:43.245Z,3.10
2023-02-17T08:34:45.098Z,3.10
2023-02-17T08:35:47.226Z,3.10
2023-02-17T08:36:49.116Z,3.00
2023-02-17T08:37:51.036Z,3.10
2023-02-17T08:38:53.928Z,3.10
2023-02-17T08:39:56.124Z,3.10
2023-02-17T08:40:58.100Z,3.10
2023-02-17T08:42:00.032Z,3.20
2023-02-17T08:43:03.561Z,3.10
2023-02-17T08:44:15.620Z,3.10
2023-02-17T08:45:17.769Z,3.20
2023-02-17T08:46:20.122Z,3.20
2023-02-17T08:47:22.008Z,3.20
2023-02-17T08:48:24.165Z,3.10
2023-02-17T08:49:28.557Z,3.20
2023-02-17T08:50:30.787Z,3.20
2023-02-17T08:51:33.314Z,3.20
2023-02-17T08:52:35.669Z,3.20
2023-02-17T08:53:37.540Z,3.20
2023-02-17T08:54:39.465Z,3.20
2023-02-17T08:55:49.198Z,3.20
2023-02-17T08:56:51.708Z,3.20
2023-02-17T08:57:54.093Z,3.20
2023-02-17T08:58:56.271Z,3.20
2023-02-17T08:59:58.364Z,3.20
2023-02-17T09:01:00.330Z,3.30
2023-02-17T09:02:02.686Z,3.30
2023-02-17T09:03:04.831Z,3.30
2023-02-17T09:04:08.802Z,3.30
2023-02-17T09:05:12.668Z,3.20
2023-02-17T09:06:16.061Z,3.30
2023-02-17T09:07:18.187Z,3.20
2023-02-17T09:08:20.061Z,3.20
2023-02-17T09:09:23.836Z,3.20
2023-02-17T09:10:25.702Z,3.20
2023-02-17T09:11:27.926Z,3.20
2023-02-17T09:12:30.964Z,3.30
2023-02-17T09:13:33.265Z,3.30
2023-02-17T09:14:35.366Z,3.30
2023-02-17T09:15:37.328Z,3.30
2023-02-17T09:16:41.408Z,3.40
2023-02-17T09:17:43.618Z,3.40
2023-02-17T09:18:45.560Z,3.40
2023-02-17T09:19:48.413Z,3.40
2023-02-17T09:20:50.525Z,3.40
2023-02-17T09:21:52.760Z,3.40
2023-02-17T09:22:54.781Z,3.50
2023-02-17T09:23:57.544Z,3.50
2023-02-17T09:24:59.630Z,3.50
2023-02-17T09:26:07.239Z,3.50
2023-02-17T09:27:09.637Z,3.40
2023-02-17T09:28:13.911Z,3.40
2023-02-17T09:29:15.767Z,3.40
2023-02-17T09:30:18.116Z,3.50
2023-02-17T09:31:25.756Z,3.40
2023-02-17T09:32:27.852Z,3.40
2023-02-17T09:33:29.917Z,3.40
2023-02-17T09:34:33.869Z,3.40
2023-02-17T09:35:37.658Z,3.40
2023-02-17T09:36:41.339Z,3.40
2023-02-17T09:37:43.750Z,3.40
2023-02-17T09:38:46.431Z,3.40
2023-02-17T09:39:49.427Z,3.50
2023-02-17T09:40:52.847Z,3.50
2023-02-17T09:41:55.541Z,3.50
2023-02-17T09:42:57.570Z,3.50
2023-02-17T09:43:59.952Z,3.50
2023-02-17T09:45:13.063Z,3.50
2023-02-17T09:46:27.301Z,3.50
2023-02-17T09:47:39.128Z,3.50
2023-02-17T09:48:41.953Z,3.50
2023-02-17T09:49:48.491Z,3.50
2023-02-17T09:51:00.140Z,3.60
2023-02-17T09:52:18.133Z,3.60
2023-02-17T09:53:45.044Z,3.60
2023-02-17T09:55:13.636Z,3.60
2023-02-17T09:56:22.270Z,3.60
2023-02-17T09:57:29.384Z,3.50
2023-02-17T09:58:40.401Z,3.60
2023-02-17T09:59:48.639Z,3.50
2023-02-17T10:01:02.565Z,3.60
2023-02-17T10:02:23.936Z,3.60
2023-02-17T10:03:36.162Z,3.60
2023-02-17T10:04:44.263Z,3.60
2023-02-17T10:05:55.178Z,3.60
2023-02-17T10:07:06.051Z,3.60
2023-02-17T10:08:25.201Z,3.60
2023-02-17T10:09:56.056Z,3.70
2023-02-17T10:11:22.152Z,3.70
2023-02-17T10:12:33.627Z,3.70
2023-02-17T10:13:40.167Z,3.60
2023-02-17T10:15:05.809Z,3.70
2023-02-17T10:16:11.999Z,3.70
2023-02-17T10:17:34.584Z,3.80
2023-02-17T10:19:01.012Z,3.80
2023-02-17T10:20:39.331Z,3.80
2023-02-17T10:21:48.365Z,3.80
2023-02-17T10:23:01.703Z,3.80
2023-02-17T10:24:04.778Z,3.90
2023-02-17T10:25:22.266Z,3.90
2023-02-17T10:26:53.707Z,4.00
2023-02-17T10:28:43.485Z,4.00
2023-02-17T10:30:26.503Z,4.00
2023-02-17T10:31:45.732Z,3.90
2023-02-17T10:33:13.281Z,3.90
2023-02-17T10:34:44.871Z,3.80
2023-02-17T10:35:51.414Z,3.80
2023-02-17T10:37:27.495Z,3.80
2023-02-17T10:38:51.943Z,3.80
2023-02-17T10:39:57.213Z,3.70
2023-02-17T10:41:01.978Z,3.70
2023-02-17T10:42:05.028Z,3.70
2023-02-17T10:43:10.087Z,3.70
2023-02-17T10:44:23.205Z,3.80
2023-02-17T10:45:33.747Z,3.80
2023-02-17T10:46:35.754Z,3.80
2023-02-17T10:47:40.376Z,3.80
2023-02-17T10:48:54.396Z,3.70
2023-02-17T10:49:58.178Z,3.70
2023-02-17T10:51:01.819Z,3.80
2023-02-17T10:52:15.588Z,3.80
2023-02-17T10:53:22.832Z,3.80
2023-02-17T10:54:38.514Z,3.90
2023-02-17T10:55:52.762Z,3.90
2023-02-17T10:56:57.718Z,3.90
2023-02-17T10:58:12.355Z,3.90
2023-02-17T10:59:30.058Z,4.00
2023-02-17T11:00:33.135Z,4.00
2023-02-17T11:01:37.217Z,4.00
2023-02-17T11:02:44.726Z,4.00
2023-02-17T11:03:46.812Z,4.00
2023-02-17T11:04:51.612Z,4.00
2023-02-17T11:06:06.607Z,4.00
2023-02-17T11:07:14.190Z,4.00
2023-02-17T11:08:45.796Z,3.90
2023-02-17T11:09:51.397Z,3.90
2023-02-17T11:11:23.096Z,3.80
2023-02-17T11:12:55.956Z,3.90
2023-02-17T11:14:03.266Z,3.80
2023-02-17T11:15:17.303Z,3.70
2023-02-17T11:16:33.472Z,3.70
2023-02-17T11:17:41.086Z,3.60
2023-02-17T11:18:48.970Z,3.70
2023-02-17T11:20:03.788Z,3.60
2023-02-17T11:21:11.626Z,3.70
2023-02-17T11:22:41.626Z,3.70
2023-02-17T11:24:00.554Z,3.70
2023-02-17T11:25:25.148Z,3.70
2023-02-17T11:26:32.993Z,3.70
2023-02-17T11:27:34.916Z,3.70
2023-02-17T11:28:37.342Z,3.80
2023-02-17T11:29:39.297Z,3.80
2023-02-17T11:30:52.131Z,3.80
2023-02-17T11:32:08.460Z,3.70
2023-02-17T11:33:22.798Z,3.80
2023-02-17T11:34:28.566Z,3.80
2023-02-17T11:35:36.160Z,3.80
2023-02-17T11:36:38.106Z,3.80
2023-02-17T11:37:43.825Z,3.80
2023-02-17T11:38:46.229Z,3.80
2023-02-17T11:39:50.360Z,3.80
2023-02-17T11:41:00.877Z,3.80
2023-02-17T11:42:02.789Z,3.80
2023-02-17T11:43:05.705Z,3.80
2023-02-17T11:44:10.806Z,3.80
2023-02-17T11:45:22.229Z,3.80
2023-02-17T11:46:32.876Z,3.80
2023-02-17T11:47:41.983Z,3.90
2023-02-17T11:49:17.146Z,3.90
2023-02-17T11:50:40.909Z,3.90
2023-02-17T11:52:11.481Z,3.90
2023-02-17T11:53:25.109Z,3.90
2023-02-17T11:54:36.131Z,3.90
2023-02-17T11:55:56.925Z,3.90
2023-02-17T11:57:23.709Z,3.90
2023-02-17T11:58:34.041Z,4.00
2023-02-17T12:00:06.539Z,4.00
2023-02-17T12:01:45.557Z,4.00
2023-02-17T12:03:16.720Z,3.90
2023-02-17T12:04:30.289Z,3.90
2023-02-17T12:05:52.504Z,3.90
2023-02-17T12:07:22.088Z,4.00
2023-02-17T12:08:38.471Z,4.00
2023-02-17T12:09:57.846Z,4.00
2023-02-17T12:11:10.001Z,4.00
2023-02-17T12:12:40.215Z,4.00
2023-02-17T12:13:42.057Z,4.10
2023-02-17T12:15:05.155Z,4.10
2023-02-17T12:16:57.199Z,4.10
2023-02-17T12:18:15.272Z,4.10
2023-02-17T12:19:32.621Z,4.00
2023-02-17T12:20:50.685Z,4.00
2023-02-17T12:22:17.585Z,4.10
2023-02-17T12:24:00.961Z,4.10
2023-02-17T12:25:17.813Z,4.10
2023-02-17T12:26:46.188Z,4.10
2023-02-17T12:28:19.455Z,4.10
2023-02-17T12:29:34.296Z,4.10
2023-02-17T12:30:54.578Z,4.10
2023-02-17T12:31:56.723Z,4.10
2023-02-17T12:33:35.965Z,4.10
2023-02-17T12:34:59.539Z,4.10
2023-02-17T12:36:07.487Z,4.10
2023-02-17T12:37:20.956Z,4.00
2023-02-17T12:38:30.438Z,4.10
2023-02-17T12:39:42.359Z,4.00
2023-02-17T12:41:10.029Z,4.00
2023-02-17T12:42:26.618Z,4.00
2023-02-17T12:43:40.647Z,4.00
2023-02-17T12:44:46.252Z,4.00
2023-02-17T12:45:51.325Z,4.00
2023-02-17T12:46:57.500Z,4.00
2023-02-17T12:48:09.183Z,4.00
2023-02-17T12:49:23.361Z,4.00
2023-02-17T12:50:39.639Z,4.00
2023-02-17T12:51:44.217Z,4.10
2023-02-17T12:52:50.798Z,4.00
2023-02-17T12:54:08.070Z,4.00
2023-02-17T12:55:28.024Z,4.00
2023-02-17T12:56:47.784Z,4.00
2023-02-17T12:57:55.988Z,4.00
2023-02-17T12:59:21.894Z,3.90
2023-02-17T13:00:39.065Z,3.90
2023-02-17T13:01:49.493Z,3.90
2023-02-17T13:02:51.506Z,3.90
2023-02-17T13:03:53.599Z,3.90
2023-02-17T13:05:00.881Z,3.90
2023-02-17T13:06:32.346Z,3.90
2023-02-17T13:07:45.567Z,3.90
2023-02-17T13:08:56.202Z,3.90
2023-02-17T13:09:58.380Z,3.90
2023-02-17T13:11:12.248Z,3.90
2023-02-17T13:12:22.804Z,3.90
2023-02-17T13:13:32.488Z,3.90
2023-02-17T13:14:41.991Z,3.90
2023-02-17T13:15:46.603Z,3.90
2023-02-17T13:16:49.675Z,3.90
2023-02-17T13:18:27.343Z,3.80
2023-02-17T13:19:31.572Z,3.80
2023-02-17T13:20:55.972Z,3.80
2023-02-17T13:22:02.464Z,3.80
2023-02-17T13:23:26.043Z,3.80
2023-02-17T13:24:35.160Z,3.80
2023-02-17T13:25:37.903Z,3.70
2023-02-17T13:26:41.385Z,3.80
2023-02-17T13:27:43.209Z,3.80
2023-02-17T13:28:45.678Z,3.70
2023-02-17T13:29:59.607Z,3.70
2023-02-17T13:31:17.867Z,3.70
2023-02-17T13:32:28.627Z,3.70
2023-02-17T13:33:31.479Z,3.70
2023-02-17T13:34:37.673Z,3.70
2023-02-17T13:35:39.605Z,3.70
2023-02-17T13:36:41.639Z,3.60
2023-02-17T13:37:46.038Z,3.70
2023-02-17T13:39:08.428Z,3.70
2023-02-17T13:40:19.421Z,3.70
2023-02-17T13:41:21.217Z,3.70
2023-02-17T13:42:41.740Z,3.70
2023-02-17T13:43:43.713Z,3.70
2023-02-17T13:44:48.638Z,3.70
2023-02-17T13:45:57.147Z,3.70
2023-02-17T13:47:20.010Z,3.70
2023-02-17T13:48:21.832Z,3.70
2023-02-17T13:49:27.737Z,3.70
2023-02-17T13:50:34.860Z,3.70
2023-02-17T13:51:36.718Z,3.70
2023-02-17T13:52:38.579Z,3.70
2023-02-17T13:53:42.247Z,3.70
2023-02-17T13:54:55.286Z,3.70
2023-02-17T13:56:05.316Z,3.70
2023-02-17T13:57:21.984Z,3.70
2023-02-17T13:58:42.597Z,3.70
2023-02-17T13:59:44.418Z,3.70
2023-02-17T14:00:46.464Z,3.60
2023-02-17T14:01:48.498Z,3.60
2023-02-17T14:02:57.812Z,3.60
2023-02-17T14:04:00.250Z,3.60
2023-02-17T14:05:16.213Z,3.60
2023-02-17T14:06:33.756Z,3.60
2023-02-17T14:07:36.871Z,3.60
2023-02-17T14:08:41.098Z,3.60
2023-02-17T14:09:43.593Z,3.60
2023-02-17T14:10:46.241Z,3.60
2023-02-17T14:11:48.554Z,3.70
2023-02-17T14:12:50.993Z,3.60
2023-02-17T14:13:55.745Z,3.70
2023-02-17T14:14:57.715Z,3.70
2023-02-17T14:16:00.985Z,3.70
2023-02-17T14:17:34.122Z,3.60
2023-02-17T14:18:42.993Z,3.60
2023-02-17T14:19:47.416Z,3.60
2023-02-17T14:21:00.599Z,3.60
2023-02-17T14:22:05.270Z,3.60
2023-02-17T14:23:11.720Z,3.70
2023-02-17T14:24:34.507Z,3.70
2023-02-17T14:25:39.077Z,3.60
2023-02-17T14:26:48.788Z,3.70
2023-02-17T14:27:51.352Z,3.70
2023-02-17T14:28:55.796Z,3.70
2023-02-17T14:29:57.685Z,3.70
2023-02-17T14:31:09.839Z,3.70
2023-02-17T14:32:36.044Z,3.70
2023-02-17T14:33:38.017Z,3.70
2023-02-17T14:34:40.058Z,3.70
2023-02-17T14:36:07.801Z,3.70
2023-02-17T14:37:17.814Z,3.70
2023-02-17T14:38:32.047Z,3.70
2023-02-17T14:39:34.017Z,3.70
2023-02-17T14:40:36.238Z,3.70
2023-02-17T14:41:38.996Z,3.70
2023-02-17T14:42:40.871Z,3.70
2023-02-17T14:43:42.796Z,3.70
2023-02-17T14:44:45.048Z,3.70
2023-02-17T14:45:46.982Z,3.80
2023-02-17T14:46:48.831Z,3.70
2023-02-17T14:47:50.702Z,3.70
2023-02-17T14:48:53.129Z,3.70
2023-02-17T14:49:54.997Z,3.70
2023-02-17T14:50:57.659Z,3.80